createdAt,value
2022-08-07T00:01:43.231Z,9.70
2022-08-07T00:03:52.027Z,8.93
2022-08-07T00:06:20.523Z,10.05
2022-08-07T00:08:59.977Z,12.07
2022-08-07T00:14:15.192Z,10.80
2022-08-07T00:16:46.065Z,10.82
2022-08-07T00:19:21.610Z,10.38
2022-08-07T00:21:56.057Z,13.30
2022-08-07T00:24:31.806Z,12.55
2022-08-07T00:27:06.255Z,11.70
2022-08-07T00:29:34.172Z,12.93
2022-08-07T00:32:05.925Z,12.30
2022-08-07T00:34:35.624Z,11.90
2022-08-07T00:37:05.013Z,11.15
2022-08-07T00:39:33.293Z,11.23
2022-08-07T00:42:05.043Z,13.40
2022-08-07T00:44:35.694Z,15.40
2022-08-07T00:48:05.401Z,14.95
2022-08-07T00:50:21.289Z,14.80
2022-08-07T00:52:43.198Z,15.30
2022-08-07T00:55:17.424Z,14.07
2022-08-07T00:57:55.718Z,12.23
2022-08-07T01:00:23.344Z,16.08
2022-08-07T01:02:51.135Z,13.25
2022-08-07T01:05:19.070Z,17.20
2022-08-07T01:07:46.590Z,15.23
2022-08-07T01:10:18.332Z,18.23
2022-08-07T01:12:53.837Z,15.45
2022-08-07T01:16:00.704Z,13.73
2022-08-07T01:18:16.871Z,14.80
2022-08-07T01:20:58.442Z,12.65
2022-08-07T01:23:38.644Z,13.88
2022-08-07T01:26:12.185Z,17.45
2022-08-07T01:28:46.202Z,16.02
2022-08-07T01:31:19.538Z,16.45
2022-08-07T01:33:55.119Z,15.68
2022-08-07T01:36:33.549Z,15.38
2022-08-07T01:39:09.890Z,15.80
2022-08-07T01:41:55.010Z,12.85
2022-08-07T01:44:29.446Z,16.08
2022-08-07T01:46:58.782Z,15.88
2022-08-07T01:49:31.999Z,14.27
2022-08-07T01:52:04.912Z,16.45
2022-08-07T01:54:36.956Z,14.07
2022-08-07T01:57:24.450Z,15.95
2022-08-07T02:00:01.087Z,13.57
2022-08-07T02:03:12.110Z,16.38
2022-08-07T02:05:48.092Z,15.50
2022-08-07T02:08:26.751Z,18.05
2022-08-07T02:10:57.921Z,15.80
2022-08-07T02:13:57.274Z,16.35
2022-08-07T02:16:19.960Z,13.18
2022-08-07T02:18:56.380Z,15.70
2022-08-07T02:21:26.424Z,14.65
2022-08-07T02:24:17.813Z,13.82
2022-08-07T02:26:46.391Z,13.13
2022-08-07T02:29:13.955Z,15.50
2022-08-07T02:31:43.066Z,18.67
2022-08-07T02:34:17.276Z,14.02
2022-08-07T02:36:51.092Z,12.82
2022-08-07T02:39:43.667Z,15.73
2022-08-07T02:42:10.048Z,17.33
2022-08-07T02:44:46.493Z,16.25
2022-08-07T02:47:23.531Z,17.83
2022-08-07T02:49:59.691Z,15.85
2022-08-07T02:52:33.331Z,16.30
2022-08-07T02:55:04.889Z,13.50
2022-08-07T02:57:53.008Z,19.50
2022-08-07T03:00:20.289Z,13.98
2022-08-07T03:02:54.481Z,22.25
2022-08-07T03:05:24.489Z,22.88
2022-08-07T03:08:08.151Z,24.73
2022-08-07T03:10:46.721Z,24.65
2022-08-07T03:13:19.441Z,31.23
2022-08-07T03:15:56.472Z,32.20
2022-08-07T03:18:35.017Z,30.83
2022-08-07T03:21:08.918Z,35.53
2022-08-07T03:24:18.400Z,25.33
2022-08-07T03:26:30.175Z,22.75
2022-08-07T03:28:58.690Z,22.55
2022-08-07T03:31:42.698Z,24.38
2022-08-07T03:34:18.585Z,24.67
2022-08-07T03:36:53.150Z,21.40
2022-08-07T03:40:00.113Z,23.27
2022-08-07T03:42:10.477Z,19.38
2022-08-07T03:44:38.070Z,18.13
2022-08-07T03:47:13.552Z,18.80
2022-08-07T03:49:47.993Z,19.95
2022-08-07T03:52:26.533Z,17.10
2022-08-07T03:55:06.557Z,16.08
2022-08-07T03:58:33.260Z,15.18
2022-08-07T04:00:30.339Z,18.08
2022-08-07T04:03:04.120Z,16.42
2022-08-07T04:05:40.578Z,14.38
2022-08-07T04:08:16.023Z,14.70
2022-08-07T04:10:54.390Z,14.90
2022-08-07T04:14:33.016Z,16.05
2022-08-07T04:16:30.886Z,18.67
2022-08-07T04:19:04.114Z,16.90
2022-08-07T04:21:39.615Z,22.00
2022-08-07T04:24:33.640Z,20.88
2022-08-07T04:27:05.358Z,27.42
2022-08-07T04:29:58.267Z,32.40
2022-08-07T04:32:36.474Z,36.55
2022-08-07T04:35:07.186Z,34.75
2022-08-07T04:37:40.653Z,32.50
2022-08-07T04:40:26.694Z,36.47
2022-08-07T04:43:01.377Z,28.40
2022-08-07T04:46:00.231Z,22.77
2022-08-07T04:48:31.035Z,20.63
2022-08-07T04:51:21.488Z,16.05
2022-08-07T04:54:06.161Z,15.43
2022-08-07T04:58:15.328Z,16.27
2022-08-07T05:00:11.956Z,17.55
2022-08-07T05:02:49.513Z,19.17
2022-08-07T05:05:53.648Z,15.45
2022-08-07T05:08:08.429Z,22.40
2022-08-07T05:10:48.784Z,16.05
2022-08-07T05:14:53.518Z,19.20
2022-08-07T05:16:15.899Z,16.10
2022-08-07T05:18:53.398Z,15.18
2022-08-07T05:21:59.211Z,14.77
2022-08-07T05:24:12.145Z,12.23
2022-08-07T05:26:39.822Z,14.55
2022-08-07T05:29:10.788Z,14.18
2022-08-07T05:31:39.604Z,15.43
2022-08-07T05:34:16.408Z,15.35
2022-08-07T05:36:52.974Z,15.73
2022-08-07T05:40:16.501Z,13.82
2022-08-07T05:42:33.794Z,18.02
2022-08-07T05:45:25.692Z,13.55
2022-08-07T05:48:01.887Z,16.58
2022-08-07T05:50:39.568Z,18.15
2022-08-07T05:54:08.737Z,21.23
2022-08-07T05:56:01.855Z,21.10
2022-08-07T05:58:36.678Z,21.58
2022-08-07T06:01:10.466Z,22.80
2022-08-07T06:03:56.491Z,21.95
2022-08-07T06:06:29.883Z,22.35
2022-08-07T06:09:04.663Z,19.00
2022-08-07T06:11:35.037Z,19.98
2022-08-07T06:14:12.585Z,16.60
2022-08-07T06:16:56.408Z,20.92
2022-08-07T06:19:52.299Z,14.35
2022-08-07T06:22:23.449Z,15.25
2022-08-07T06:25:01.083Z,16.17
2022-08-07T06:28:00.372Z,15.82
2022-08-07T06:30:24.253Z,16.23
2022-08-07T06:33:03.920Z,15.93
2022-08-07T06:35:45.620Z,17.80
2022-08-07T06:38:20.011Z,18.33
2022-08-07T06:40:51.480Z,15.57
2022-08-07T06:43:23.766Z,14.20
2022-08-07T06:46:35.076Z,15.43
2022-08-07T06:49:04.734Z,16.85
2022-08-07T06:51:35.849Z,15.43
2022-08-07T06:55:31.950Z,13.77
2022-08-07T06:57:09.638Z,14.45
2022-08-07T07:00:13.060Z,15.88
2022-08-07T07:02:54.639Z,13.88
2022-08-07T07:06:05.436Z,16.63
2022-08-07T07:08:10.115Z,13.70
2022-08-07T07:10:47.555Z,13.73
2022-08-07T07:13:55.788Z,12.65
2022-08-07T07:16:19.510Z,14.25
2022-08-07T07:18:56.280Z,17.23
2022-08-07T07:22:04.132Z,13.93
2022-08-07T07:24:22.302Z,13.52
2022-08-07T07:26:52.243Z,13.27
2022-08-07T07:29:39.770Z,12.73
2022-08-07T07:32:12.326Z,13.07
2022-08-07T07:34:44.196Z,14.00
2022-08-07T07:37:22.035Z,12.63
2022-08-07T07:40:03.020Z,14.30
2022-08-07T07:42:38.135Z,11.80
2022-08-07T07:45:06.894Z,12.68
2022-08-07T07:47:52.167Z,12.23
2022-08-07T07:50:35.220Z,13.40
2022-08-07T07:53:13.650Z,14.80
2022-08-07T07:56:00.706Z,11.63
2022-08-07T07:58:30.896Z,14.55
2022-08-07T08:02:03.684Z,12.65
2022-08-07T08:04:09.620Z,13.65
2022-08-07T08:06:40.781Z,11.48
2022-08-07T08:09:23.016Z,11.20
2022-08-07T08:12:02.531Z,11.88
2022-08-07T08:14:36.214Z,14.27
2022-08-07T08:17:56.146Z,13.27
2022-08-07T08:20:16.070Z,11.65
2022-08-07T08:23:01.410Z,12.15
2022-08-07T08:25:49.088Z,12.73
2022-08-07T08:28:37.253Z,12.73
2022-08-07T08:31:06.632Z,11.73
2022-08-07T08:33:36.648Z,13.73
2022-08-07T08:36:07.560Z,12.88
2022-08-07T08:38:41.257Z,12.00
2022-08-07T08:41:13.584Z,10.38
2022-08-07T08:43:56.690Z,12.60
2022-08-07T08:46:32.427Z,12.25
2022-08-07T08:49:09.730Z,13.63
2022-08-07T08:52:00.974Z,12.68
2022-08-07T08:54:30.664Z,14.80
2022-08-07T08:56:58.370Z,13.40
2022-08-07T08:59:42.334Z,14.20
2022-08-07T09:02:36.601Z,15.27
2022-08-07T09:05:36.827Z,14.75
2022-08-07T09:08:29.143Z,15.57
2022-08-07T09:11:11.519Z,14.95
2022-08-07T09:13:41.046Z,14.25
2022-08-07T09:16:23.930Z,15.40
2022-08-07T09:19:07.337Z,14.07
2022-08-07T09:24:29.343Z,14.57
2022-08-07T09:24:58.566Z,15.55
2022-08-07T09:27:59.796Z,15.88
2022-08-07T09:30:31.774Z,17.05
2022-08-07T09:33:05.562Z,15.13
2022-08-07T09:36:04.464Z,15.10
2022-08-07T09:38:58.911Z,14.48
2022-08-07T09:41:58.412Z,14.38
2022-08-07T09:47:55.900Z,14.50
2022-08-07T09:50:33.830Z,14.43
2022-08-07T09:53:03.068Z,14.18
2022-08-07T09:56:03.720Z,13.57
2022-08-07T09:58:48.652Z,13.00
2022-08-07T10:01:50.525Z,13.38
2022-08-07T10:04:28.244Z,13.18
2022-08-07T10:07:24.676Z,12.80
2022-08-07T10:10:00.640Z,13.60
2022-08-07T10:12:31.088Z,14.27
2022-08-07T10:15:05.424Z,14.27
2022-08-07T10:18:00.785Z,13.75
2022-08-07T10:20:50.301Z,13.90
2022-08-07T10:23:17.453Z,13.57
2022-08-07T10:26:07.563Z,15.13
2022-08-07T10:28:41.321Z,13.48
2022-08-07T10:31:17.807Z,13.63
2022-08-07T10:34:13.967Z,15.60
2022-08-07T10:37:03.810Z,14.90
2022-08-07T10:40:03.363Z,12.77
2022-08-07T10:42:56.878Z,12.45
2022-08-07T10:45:57.170Z,12.65
2022-08-07T10:48:35.181Z,13.25
2022-08-07T10:51:57.628Z,14.68
2022-08-07T10:54:04.822Z,13.07
2022-08-07T10:56:37.998Z,14.07
2022-08-07T11:01:51.896Z,12.43
2022-08-07T11:04:46.684Z,12.98
2022-08-07T11:07:56.192Z,12.25
2022-08-07T11:10:20.091Z,13.13
2022-08-07T11:13:02.080Z,11.73
2022-08-07T11:15:32.285Z,11.88
2022-08-07T11:18:03.562Z,12.73
2022-08-07T11:20:37.775Z,13.15
2022-08-07T11:23:11.677Z,11.90
2022-08-07T11:26:14.136Z,13.13
2022-08-07T11:28:53.438Z,12.27
2022-08-07T11:31:22.854Z,12.13
2022-08-07T11:34:11.009Z,12.13
2022-08-07T11:36:38.071Z,11.98
2022-08-07T11:39:22.300Z,12.43
2022-08-07T11:42:18.786Z,11.35
2022-08-07T11:45:04.867Z,11.27
2022-08-07T11:47:58.887Z,11.07
2022-08-07T11:50:32.896Z,12.00
2022-08-07T11:53:00.360Z,12.43
2022-08-07T11:56:09.480Z,11.18
2022-08-07T11:58:33.745Z,11.85
2022-08-07T12:01:20.391Z,11.52
2022-08-07T12:04:08.416Z,11.63
2022-08-07T12:06:56.312Z,11.52
2022-08-07T12:09:28.147Z,13.67
2022-08-07T12:12:11.671Z,11.98
2022-08-07T12:14:45.604Z,11.88
2022-08-07T12:17:28.296Z,13.20
2022-08-07T12:20:12.938Z,11.93
2022-08-07T12:22:58.829Z,11.82
2022-08-07T12:26:02.952Z,11.80
2022-08-07T12:28:44.911Z,12.55
2022-08-07T12:31:17.346Z,11.00
2022-08-07T12:34:01.389Z,13.45
2022-08-07T12:36:32.742Z,11.13
2022-08-07T12:39:09.412Z,12.00
2022-08-07T12:44:21.931Z,13.30
2022-08-07T12:47:03.087Z,10.93
2022-08-07T12:49:49.133Z,11.32
2022-08-07T12:52:29.574Z,12.77
2022-08-07T12:55:05.202Z,11.32
2022-08-07T12:57:59.522Z,13.00
2022-08-07T13:00:34.590Z,11.73
2022-08-07T13:03:08.607Z,11.95
2022-08-07T13:06:04.885Z,12.30
2022-08-07T13:08:55.570Z,12.88
2022-08-07T13:12:02.792Z,11.35
2022-08-07T13:14:51.291Z,11.52
2022-08-07T13:17:40.624Z,10.55
2022-08-07T13:20:21.835Z,11.15
2022-08-07T13:23:59.881Z,12.00
2022-08-07T13:26:00.806Z,11.95
2022-08-07T13:28:48.885Z,11.07
2022-08-07T13:31:46.135Z,10.73
2022-08-07T13:34:35.852Z,10.32
2022-08-07T13:37:10.745Z,12.02
2022-08-07T13:40:36.217Z,11.50
2022-08-07T13:42:40.800Z,10.90
2022-08-07T13:45:20.783Z,10.77
2022-08-07T13:48:04.293Z,11.25
2022-08-07T13:50:44.816Z,10.77
2022-08-07T13:53:24.036Z,10.30
2022-08-07T13:55:54.827Z,12.43
2022-08-07T13:58:56.157Z,9.87
2022-08-07T14:01:25.172Z,10.30
2022-08-07T14:04:05.397Z,10.48
2022-08-07T14:06:40.147Z,8.95
2022-08-07T14:09:16.893Z,9.35
2022-08-07T14:11:53.526Z,9.10
2022-08-07T14:17:00.000Z,9.45
2022-08-07T14:20:42.635Z,10.20
2022-08-07T14:22:35.289Z,10.32
2022-08-07T14:25:10.866Z,11.85
2022-08-07T14:28:12.159Z,14.73
2022-08-07T14:30:34.148Z,14.57
2022-08-07T14:33:04.444Z,10.38
2022-08-07T14:35:45.827Z,7.40
2022-08-07T14:38:24.796Z,8.68
2022-08-07T14:41:21.439Z,7.65
2022-08-07T14:44:11.830Z,15.23
2022-08-07T14:46:56.561Z,10.63
2022-08-07T14:49:57.398Z,16.65
2022-08-07T14:52:22.362Z,21.08
2022-08-07T14:54:54.885Z,16.60
2022-08-07T14:57:23.940Z,26.40
2022-08-07T15:00:03.682Z,14.52
2022-08-07T15:02:34.602Z,15.18
2022-08-07T15:05:02.577Z,14.38
2022-08-07T15:10:20.335Z,15.15
2022-08-07T15:13:06.224Z,18.48
2022-08-07T15:15:42.176Z,22.73
2022-08-07T15:18:33.573Z,18.15
2022-08-07T15:21:08.286Z,15.45
2022-08-07T15:25:14.054Z,16.27
2022-08-07T15:26:55.071Z,28.55
2022-08-07T15:30:09.565Z,27.58
2022-08-07T15:32:12.482Z,19.58
2022-08-07T15:34:50.576Z,18.13
2022-08-07T15:37:27.777Z,18.33
2022-08-07T15:39:59.045Z,16.73
2022-08-07T15:45:55.745Z,12.90
2022-08-07T15:48:18.584Z,17.13
2022-08-07T15:56:21.557Z,20.05
2022-08-07T15:58:52.141Z,18.70
2022-08-07T16:01:38.802Z,20.23
2022-08-07T16:04:14.601Z,21.75
2022-08-07T16:06:45.686Z,19.23
2022-08-07T16:09:41.891Z,22.70
2022-08-07T16:12:12.470Z,17.90
2022-08-07T16:14:59.160Z,19.35
2022-08-07T16:18:02.993Z,15.95
2022-08-07T16:20:42.124Z,16.80
2022-08-07T16:23:53.923Z,18.35
2022-08-07T16:26:30.606Z,15.40
2022-08-07T16:30:11.592Z,16.10
2022-08-07T16:32:33.052Z,15.60
2022-08-07T16:35:52.032Z,13.95
2022-08-07T16:38:11.283Z,17.92
2022-08-07T16:41:01.539Z,15.93
2022-08-07T16:44:06.075Z,16.08
2022-08-07T16:50:28.131Z,17.05
2022-08-07T16:52:49.324Z,13.30
2022-08-07T16:55:27.755Z,14.63
2022-08-07T16:58:15.822Z,13.88
2022-08-07T17:01:01.837Z,17.00
2022-08-07T17:03:58.233Z,14.63
2022-08-07T17:06:48.157Z,13.57
2022-08-07T17:10:08.507Z,13.85
2022-08-07T17:12:46.209Z,16.45
2022-08-07T17:15:44.352Z,14.75
2022-08-07T17:18:14.319Z,15.48
2022-08-07T17:20:46.504Z,14.80
2022-08-07T17:23:23.104Z,15.55
2022-08-07T17:25:59.594Z,17.25
2022-08-07T17:28:35.338Z,15.98
2022-08-07T17:31:16.689Z,15.65
2022-08-07T17:34:32.875Z,15.77
2022-08-07T17:37:09.032Z,13.88
2022-08-07T17:40:10.886Z,15.60
2022-08-07T17:42:59.897Z,13.95
2022-08-07T17:45:35.103Z,15.52
2022-08-07T17:48:05.308Z,17.77
2022-08-07T17:50:42.600Z,15.70
2022-08-07T17:53:59.892Z,16.00
2022-08-07T17:56:26.202Z,15.93
2022-08-07T17:58:56.956Z,15.65
2022-08-07T18:01:36.655Z,16.13
2022-08-07T18:04:16.959Z,19.40
2022-08-07T18:06:47.366Z,15.70
2022-08-07T18:10:05.046Z,17.30
2022-08-07T18:12:30.426Z,17.75
2022-08-07T18:15:09.665Z,16.95
2022-08-07T18:18:47.013Z,18.52
2022-08-07T18:21:03.630Z,17.35
2022-08-07T18:23:50.657Z,16.15
2022-08-07T18:26:42.930Z,16.55
2022-08-07T18:30:05.702Z,17.88
2022-08-07T18:32:21.104Z,36.70
2022-08-07T18:35:07.875Z,31.70
2022-08-07T18:38:56.014Z,40.53
2022-08-07T18:41:03.797Z,21.10
2022-08-07T18:43:48.931Z,17.95
2022-08-07T18:46:27.392Z,22.75
2022-08-07T18:50:30.759Z,26.90
2022-08-07T18:52:34.997Z,31.70
2022-08-07T18:55:40.558Z,30.27
2022-08-07T18:58:13.009Z,32.65
2022-08-07T19:03:16.167Z,36.97
2022-08-07T19:06:02.596Z,28.92
2022-08-07T19:08:46.239Z,27.45
2022-08-07T19:11:35.687Z,21.67
2022-08-07T19:14:17.047Z,18.38
2022-08-07T19:17:05.556Z,20.02
2022-08-07T19:19:45.324Z,22.55
2022-08-07T19:22:31.181Z,21.13
2022-08-07T19:25:06.559Z,21.63
2022-08-07T19:28:29.764Z,21.15
2022-08-07T19:31:06.042Z,21.67
2022-08-07T19:33:15.927Z,19.58
2022-08-07T19:35:51.312Z,22.00
2022-08-07T19:38:20.455Z,21.25
2022-08-07T19:40:50.999Z,20.67
2022-08-07T19:43:48.860Z,19.77
2022-08-07T19:46:12.264Z,19.20
2022-08-07T19:48:43.807Z,21.33
2022-08-07T19:51:19.366Z,20.35
2022-08-07T19:54:34.578Z,21.77
2022-08-07T19:57:51.806Z,21.90
2022-08-07T19:59:40.583Z,22.10
2022-08-07T20:02:18.924Z,23.08
2022-08-07T20:04:49.254Z,21.08
2022-08-07T20:07:23.840Z,20.48
2022-08-07T20:10:36.644Z,21.40
2022-08-07T20:12:54.567Z,20.13
2022-08-07T20:15:33.012Z,23.60
2022-08-07T20:18:06.507Z,22.75
2022-08-07T20:20:45.398Z,21.73
2022-08-07T20:23:41.837Z,20.90
2022-08-07T20:26:05.011Z,20.42
2022-08-07T20:28:38.501Z,21.13
2022-08-07T20:31:21.861Z,21.50
2022-08-07T20:33:56.580Z,22.13
2022-08-07T20:36:25.363Z,21.65
2022-08-07T20:39:00.507Z,21.92
2022-08-07T20:41:47.384Z,26.23
2022-08-07T20:44:15.583Z,22.10
2022-08-07T20:46:45.440Z,21.73
2022-08-07T20:49:59.585Z,20.73
2022-08-07T20:52:09.372Z,22.38
2022-08-07T20:54:53.472Z,20.20
2022-08-07T20:57:25.644Z,21.00
2022-08-07T21:00:06.558Z,22.83
2022-08-07T21:02:57.608Z,22.00
2022-08-07T21:05:55.704Z,20.65
2022-08-07T21:08:39.203Z,20.42
2022-08-07T21:11:14.443Z,19.13
2022-08-07T21:14:16.269Z,20.00
2022-08-07T21:16:36.332Z,17.98
2022-08-07T21:19:05.895Z,18.33
2022-08-07T21:21:56.772Z,18.23
2022-08-07T21:24:47.790Z,18.73
2022-08-07T21:27:22.948Z,18.67
2022-08-07T21:30:08.701Z,19.80
2022-08-07T21:32:47.265Z,18.85
2022-08-07T21:36:03.835Z,18.42
2022-08-07T21:38:19.139Z,19.45
2022-08-07T21:41:10.079Z,19.73
2022-08-07T21:43:55.224Z,20.63
2022-08-07T21:46:53.106Z,21.40
2022-08-07T21:49:21.096Z,20.00
2022-08-07T21:52:01.478Z,18.58
2022-08-07T21:54:34.512Z,23.17
2022-08-07T21:57:39.936Z,20.83
2022-08-07T22:00:08.616Z,23.23
2022-08-07T22:02:41.703Z,23.27
2022-08-07T22:05:12.214Z,21.30
2022-08-07T22:07:58.762Z,23.17
2022-08-07T22:10:33.813Z,24.27
2022-08-07T22:13:05.701Z,25.38
2022-08-07T22:16:43.567Z,23.70
2022-08-07T22:18:37.280Z,21.75
2022-08-07T22:21:19.280Z,23.85
2022-08-07T22:24:33.053Z,21.65
2022-08-07T22:27:05.291Z,23.98
2022-08-07T22:29:49.696Z,20.67
2022-08-07T22:32:24.624Z,22.77
2022-08-07T22:34:55.670Z,21.77
2022-08-07T22:38:04.225Z,21.90
2022-08-07T22:42:44.580Z,22.48
2022-08-07T22:46:04.547Z,22.42
2022-08-07T22:48:31.749Z,21.88
2022-08-07T22:51:03.179Z,21.88
2022-08-07T22:54:07.529Z,22.45
2022-08-07T22:56:34.581Z,21.88
2022-08-07T22:59:20.801Z,23.75
2022-08-07T23:02:06.707Z,23.08
2022-08-07T23:04:56.946Z,21.63
2022-08-07T23:07:42.409Z,20.50
2022-08-07T23:10:37.281Z,22.27
2022-08-07T23:13:07.755Z,21.27
2022-08-07T23:16:07.147Z,22.52
2022-08-07T23:19:14.133Z,23.10
2022-08-07T23:21:49.413Z,20.80
2022-08-07T23:24:22.903Z,20.65
2022-08-07T23:27:08.682Z,19.58
2022-08-07T23:30:38.667Z,18.63
2022-08-07T23:34:36.243Z,20.05
2022-08-07T23:35:43.594Z,23.30
2022-08-07T23:38:10.885Z,22.30
2022-08-07T23:40:50.892Z,20.33
2022-08-07T23:43:38.868Z,23.40
2022-08-07T23:46:27.357Z,23.83
2022-08-07T23:49:00.621Z,25.42
2022-08-07T23:53:11.807Z,24.98
2022-08-07T23:54:44.171Z,28.08
2022-08-07T23:57:18.436Z,23.75
